Time;durP1;ratioP1;P1;durP2;ratioP2;P2;SDS_P1;SDS_P2;PMS_P1;PMS_P2;Temp;Humidity;BMP_temperature;BMP_pressure;BME280_temperature;BME280_humidity;BME280_pressure;Samples;Min_cycle;Max_cycle;Signal;HPM_P1;HPM_P2
2022/12/23 00:01:29;;;;;;;;;;;;;;;21.38;25.94;97743.84;5095785;28;913;-76
2022/12/23 00:03:55;;;;;;;;;;;;;;;21.35;26.02;97747.56;5096148;28;1929;-76
2022/12/23 00:06:21;;;;;;;;;;;;;;;20.88;26.46;97753.72;5095591;28;893;-76
2022/12/23 00:08:46;;;;;;;;;;;;;;;20.70;26.86;97738.06;5072828;28;1612;-75
2022/12/23 00:11:15;;;;;;;;;;;;;;;20.66;26.73;97743.00;5072972;28;1019;-75
2022/12/23 00:16:24;;;;;;;;;;;;;;;21.31;25.92;97747.69;5073137;28;945;-75
2022/12/23 00:18:50;;;;;;;;;;;;;;;21.32;25.90;97750.06;5072887;28;1041;-76
2022/12/23 00:21:16;;;;;;;;;;;;;;;21.56;25.48;97741.28;5056375;28;1158;-76
2022/12/23 00:23:43;;;;;;;;;;;;;;;21.04;26.03;97746.00;5032632;28;1902;-76
2022/12/23 00:26:12;;;;;;;;;;;;;;;20.63;26.72;97738.25;5016338;28;960;-76
2022/12/23 00:28:38;;;;;;;;;;;;;;;20.73;26.75;97740.00;5032453;28;1168;-75
2022/12/23 00:31:04;;;;;;;;;;;;;;;21.10;26.22;97740.59;5016326;28;1325;-75
2022/12/23 00:33:30;;;;;;;;;;;;;;;21.17;26.02;97737.53;5016577;28;933;-76
2022/12/23 00:35:56;;;;;;;;;;;;;;;21.44;25.84;97739.22;5016368;28;964;-75
2022/12/23 00:43:53;;;;;;;;;;;;;;;20.90;26.26;97722.97;5058268;28;1975;-75
2022/12/23 00:46:18;;;;;;;;;;;;;;;20.88;26.54;97725.44;5072921;28;1000;-76
2022/12/23 00:51:28;;;;;;;;;;;;;;;21.16;25.93;97713.34;5076634;28;934;-75
2022/12/23 00:53:53;;;;;;;;;;;;;;;21.43;25.62;97721.44;5076597;28;1022;-76
2022/12/23 00:56:18;;;;;;;;;;;;;;;21.26;25.76;97708.59;5076564;28;953;-76
2022/12/23 00:58:44;;;;;;;;;;;;;;;21.22;25.86;97708.69;5076441;28;893;-75
2022/12/23 01:06:37;;;;;;;;;;;;;;;21.04;26.08;97697.91;5098892;28;992;-75
2022/12/23 01:09:02;;;;;;;;;;;;;;;21.21;25.89;97704.28;5098705;28;894;-75
2022/12/23 01:11:28;;;;;;;;;;;;;;;21.35;25.58;97702.28;5098988;28;963;-76
2022/12/23 01:13:53;;;;;;;;;;;;;;;21.16;26.06;97695.56;5079278;28;1082;-75
2022/12/23 01:16:19;;;;;;;;;;;;;;;20.88;26.64;97688.69;5097799;28;933;-76
2022/12/23 01:18:44;;;;;;;;;;;;;;;20.52;26.87;97686.84;5098964;28;1012;-76
2022/12/23 01:21:10;;;;;;;;;;;;;;;20.96;26.27;97692.91;5098400;28;893;-76
2022/12/23 01:23:36;;;;;;;;;;;;;;;21.14;26.16;97684.72;5097100;28;1898;-76
2022/12/23 01:26:03;;;;;;;;;;;;;;;21.28;25.80;97675.78;5098417;28;929;-75
2022/12/23 01:28:29;;;;;;;;;;;;;;;21.44;25.72;97672.06;5098213;28;926;-76
2022/12/23 01:30:54;;;;;;;;;;;;;;;21.11;25.83;97671.44;5098249;28;1142;-75
2022/12/23 01:33:20;;;;;;;;;;;;;;;20.86;26.58;97674.22;5097255;28;938;-75
2022/12/23 01:35:45;;;;;;;;;;;;;;;20.35;27.15;97665.50;5098013;28;1152;-75
2022/12/23 01:38:11;;;;;;;;;;;;;;;20.88;26.59;97674.53;5098066;28;948;-75
2022/12/23 01:40:36;;;;;;;;;;;;;;;21.18;25.79;97662.75;5079825;28;946;-75
2022/12/23 01:43:02;;;;;;;;;;;;;;;21.25;25.86;97658.91;5098062;28;1004;-75
2022/12/23 01:45:28;;;;;;;;;;;;;;;21.23;26.08;97656.50;5075021;28;1918;-76
2022/12/23 01:48:01;;;;;;;;;;;;;;;21.07;25.93;97665.09;5074917;28;991;-76
2022/12/23 01:50:30;;;;;;;;;;;;;;;20.77;26.44;97655.84;5058287;28;1016;-76
2022/12/23 01:53:00;;;;;;;;;;;;;;;20.63;26.69;97656.28;5058448;28;1145;-75
2022/12/23 01:55:26;;;;;;;;;;;;;;;21.12;25.96;97666.56;5024913;28;982;-75
2022/12/23 01:57:52;;;;;;;;;;;;;;;21.22;25.89;97652.09;5058454;28;1013;-75
2022/12/23 02:05:45;;;;;;;;;;;;;;;20.84;26.57;97649.22;5074780;28;1910;-76
2022/12/23 02:11:01;;;;;;;;;;;;;;;20.81;26.84;97642.41;5060554;28;950;-75
2022/12/23 02:13:30;;;;;;;;;;;;;;;21.27;25.80;97648.72;5074474;28;1301;-76
2022/12/23 02:16:17;;;;;;;;;;;;;;;21.46;25.59;97640.50;5049508;28;2517;-76
2022/12/23 02:18:42;;;;;;;;;;;;;;;21.26;25.86;97644.31;5096675;28;911;-76
2022/12/23 02:21:20;;;;;;;;;;;;;;;20.72;26.92;97644.31;5097303;28;932;-76
2022/12/23 02:24:04;;;;;;;;;;;;;;;20.58;26.96;97639.88;5096081;28;1968;-76
2022/12/23 02:26:29;;;;;;;;;;;;;;;21.13;26.27;97640.66;5097117;28;910;-75
2022/12/23 02:29:15;;;;;;;;;;;;;;;21.40;25.48;97634.63;5096953;28;1006;-76
2022/12/23 02:32:04;;;;;;;;;;;;;;;21.46;25.62;97632.00;5096511;28;995;-75
2022/12/23 02:34:38;;;;;;;;;;;;;;;21.37;25.64;97631.91;5014913;28;1022;-76
2022/12/23 02:37:23;;;;;;;;;;;;;;;21.01;25.97;97645.06;4998300;28;1086;-76
2022/12/23 02:40:03;;;;;;;;;;;;;;;20.52;26.80;97630.31;5013803;28;1055;-76
2022/12/23 02:42:28;;;;;;;;;;;;;;;20.43;27.04;97633.78;4998471;28;963;-75
2022/12/23 02:45:10;;;;;;;;;;;;;;;20.94;26.33;97638.84;5014440;28;1946;-76
2022/12/23 02:47:39;;;;;;;;;;;;;;;21.16;26.02;97630.50;4998258;28;968;-75
2022/12/23 02:50:08;;;;;;;;;;;;;;;21.44;25.60;97634.50;4998115;28;1007;-76
2022/12/23 02:52:33;;;;;;;;;;;;;;;21.53;25.59;97628.94;4998281;28;1272;-75
2022/12/23 02:55:05;;;;;;;;;;;;;;;20.99;26.25;97635.47;4998068;28;976;-76
2022/12/23 02:57:32;;;;;;;;;;;;;;;20.87;26.40;97639.03;4998048;28;920;-76
2022/12/23 02:59:58;;;;;;;;;;;;;;;20.94;26.25;97638.84;4997606;28;936;-76
2022/12/23 03:02:23;;;;;;;;;;;;;;;21.16;25.83;97624.84;5014172;28;933;-75
2022/12/23 03:04:48;;;;;;;;;;;;;;;21.21;26.03;97630.72;5013666;28;1996;-75
2022/12/23 03:07:16;;;;;;;;;;;;;;;21.27;25.92;97631.75;5013786;28;1004;-76
2022/12/23 03:09:50;;;;;;;;;;;;;;;21.05;25.93;97639.31;4997880;28;959;-75
2022/12/23 03:12:29;;;;;;;;;;;;;;;20.90;26.25;97638.16;5081056;28;1004;-75
2022/12/23 03:14:55;;;;;;;;;;;;;;;20.77;26.57;97636.06;5094738;28;1180;-75
2022/12/23 03:17:34;;;;;;;;;;;;;;;21.29;25.75;97632.06;5095900;28;912;-76
2022/12/23 03:20:32;;;;;;;;;;;;;;;21.28;26.01;97630.50;5094982;28;1007;-76
2022/12/23 03:22:59;;;;;;;;;;;;;;;21.24;26.01;97623.34;5013955;28;983;-75
2022/12/23 03:25:25;;;;;;;;;;;;;;;21.25;25.99;97620.09;4997229;28;1970;-76
2022/12/23 03:27:53;;;;;;;;;;;;;;;20.92;26.52;97630.00;5013818;28;983;-75
2022/12/23 03:30:19;;;;;;;;;;;;;;;20.97;26.23;97624.56;5013833;28;998;-75
2022/12/23 03:32:46;;;;;;;;;;;;;;;21.05;26.15;97611.81;4997273;28;1023;-76
2022/12/23 03:35:11;;;;;;;;;;;;;;;21.21;26.05;97624.28;4997180;28;1038;-75
2022/12/23 03:37:37;;;;;;;;;;;;;;;21.32;25.74;97614.22;4997104;28;952;-76
2022/12/23 03:40:10;;;;;;;;;;;;;;;21.44;25.47;97614.69;4997176;28;974;-75
2022/12/23 03:42:36;;;;;;;;;;;;;;;21.64;25.21;97611.59;4997146;28;1199;-76
2022/12/23 03:45:02;;;;;;;;;;;;;;;20.96;26.24;97619.38;4973965;28;1982;-76
2022/12/23 03:47:32;;;;;;;;;;;;;;;20.70;26.47;97627.78;4942091;28;992;-75
2022/12/23 03:49:59;;;;;;;;;;;;;;;20.66;26.67;97621.44;4958309;28;1163;-75
2022/12/23 03:52:31;;;;;;;;;;;;;;;21.03;26.07;97621.97;4974123;28;1033;-75
2022/12/23 03:54:58;;;;;;;;;;;;;;;21.13;25.99;97612.38;4958315;28;1082;-76
2022/12/23 03:57:29;;;;;;;;;;;;;;;21.18;26.09;97608.97;4976957;28;907;-76
2022/12/23 03:59:55;;;;;;;;;;;;;;;21.42;25.43;97605.84;5072781;28;1000;-76
2022/12/23 04:02:25;;;;;;;;;;;;;;;21.22;25.60;97615.31;5072989;28;858;-76
2022/12/23 04:04:57;;;;;;;;;;;;;;;20.67;26.39;97613.75;5056160;28;1972;-76
2022/12/23 04:07:29;;;;;;;;;;;;;;;20.72;26.53;97608.34;5072888;28;982;-76
2022/12/23 04:09:55;;;;;;;;;;;;;;;20.92;26.47;97613.03;5073071;28;952;-75
2022/12/23 04:12:21;;;;;;;;;;;;;;;21.17;25.83;97607.41;5055804;28;921;-76
2022/12/23 04:14:47;;;;;;;;;;;;;;;21.45;25.48;97599.28;5056012;28;1365;-75
2022/12/23 04:17:12;;;;;;;;;;;;;;;21.45;25.45;97619.09;5093540;28;925;-76
2022/12/23 04:19:38;;;;;;;;;;;;;;;21.17;26.00;97617.94;5094104;28;855;-75
2022/12/23 04:22:03;;;;;;;;;;;;;;;21.00;26.29;97634.22;5076307;28;1073;-76
2022/12/23 04:24:29;;;;;;;;;;;;;;;20.66;26.60;97629.94;5097979;28;1906;-76
2022/12/23 04:26:54;;;;;;;;;;;;;;;20.99;26.11;97629.81;5099806;28;889;-75
2022/12/23 04:29:19;;;;;;;;;;;;;;;21.04;26.00;97632.06;5099433;28;962;-76
2022/12/23 04:31:45;;;;;;;;;;;;;;;21.28;25.71;97624.84;5099403;28;917;-75
2022/12/23 04:34:10;;;;;;;;;;;;;;;21.38;25.42;97622.16;5080208;28;983;-76
2022/12/23 04:36:36;;;;;;;;;;;;;;;21.17;25.95;97623.59;5099245;28;921;-76
2022/12/23 04:39:01;;;;;;;;;;;;;;;20.72;26.71;97628.13;5099389;28;918;-76
2022/12/23 04:41:27;;;;;;;;;;;;;;;20.59;26.73;97624.47;5099140;28;1027;-76
2022/12/23 04:43:52;;;;;;;;;;;;;;;21.12;26.00;97621.31;5099525;28;1898;-76
2022/12/23 04:46:18;;;;;;;;;;;;;;;21.21;25.88;97624.28;5099429;28;940;-76
2022/12/23 04:48:43;;;;;;;;;;;;;;;21.21;25.91;97630.72;5099037;28;1081;-76
2022/12/23 04:51:09;;;;;;;;;;;;;;;21.25;25.86;97631.41;5098970;28;1027;-76
2022/12/23 04:53:34;;;;;;;;;;;;;;;21.16;25.86;97628.44;5099059;28;1064;-75
2022/12/23 04:56:00;;;;;;;;;;;;;;;20.69;26.53;97629.03;5099315;28;854;-75
2022/12/23 04:58:25;;;;;;;;;;;;;;;20.71;27.00;97632.19;5099328;28;936;-75
2022/12/23 05:01:00;;;;;;;;;;;;;;;21.22;25.75;97625.84;5098685;28;1033;-74
2022/12/23 05:03:26;;;;;;;;;;;;;;;21.31;25.57;97635.28;5098413;28;928;-74
2022/12/23 05:05:51;;;;;;;;;;;;;;;21.30;25.78;97633.72;5098877;28;1905;-74
2022/12/23 05:08:17;;;;;;;;;;;;;;;21.55;25.50;97632.09;5098459;28;946;-74
2022/12/23 05:10:43;;;;;;;;;;;;;;;20.98;26.07;97636.66;5099001;28;959;-74
2022/12/23 05:13:09;;;;;;;;;;;;;;;20.76;26.56;97634.47;5097452;28;1141;-74
2022/12/23 05:15:34;;;;;;;;;;;;;;;20.58;26.81;97633.41;5098241;28;1522;-73
2022/12/23 05:18:00;;;;;;;;;;;;;;;21.04;26.06;97632.06;5100421;28;1121;-75
2022/12/23 05:20:25;;;;;;;;;;;;;;;21.09;25.80;97628.69;5119110;28;882;-75
2022/12/23 05:22:50;;;;;;;;;;;;;;;21.27;25.76;97625.28;5119462;28;938;-74
2022/12/23 05:25:16;;;;;;;;;;;;;;;21.23;25.84;97628.22;5119002;28;1905;-75
2022/12/23 05:27:42;;;;;;;;;;;;;;;20.96;26.13;97634.31;5118912;28;944;-75
2022/12/23 05:30:08;;;;;;;;;;;;;;;20.69;26.46;97629.03;5118776;28;918;-75
2022/12/23 05:32:33;;;;;;;;;;;;;;;20.73;26.75;97629.75;5118429;28;951;-75
2022/12/23 05:34:58;;;;;;;;;;;;;;;21.02;26.11;97638.16;5098688;28;1039;-75
2022/12/23 05:37:24;;;;;;;;;;;;;;;21.29;25.83;97632.06;5118849;28;959;-75
2022/12/23 05:39:49;;;;;;;;;;;;;;;21.36;25.93;97635.97;5111985;28;1524;-75
2022/12/23 05:42:18;;;;;;;;;;;;;;;21.30;26.05;97633.72;5109160;28;1451;-75
2022/12/23 05:44:43;;;;;;;;;;;;;;;21.03;26.33;97647.44;5108596;28;1957;-75
2022/12/23 05:47:09;;;;;;;;;;;;;;;20.85;26.77;97644.34;5107912;28;1432;-75
2022/12/23 05:49:34;;;;;;;;;;;;;;;21.00;26.68;97646.31;5106979;28;1553;-75
2022/12/23 05:52:00;;;;;;;;;;;;;;;21.22;26.07;97652.09;5088664;28;1455;-75
2022/12/23 05:54:25;;;;;;;;;;;;;;;21.23;26.06;97639.53;5101867;28;1509;-75
2022/12/23 05:56:51;;;;;;;;;;;;;;;21.24;26.27;97638.31;5097921;28;1069;-75
2022/12/23 05:59:16;;;;;;;;;;;;;;;21.16;26.23;97642.59;5095483;28;1019;-75
2022/12/23 06:01:42;;;;;;;;;;;;;;;20.97;26.45;97646.41;5097530;28;937;-75
2022/12/23 06:04:07;;;;;;;;;;;;;;;21.27;26.06;97648.72;5097587;28;1913;-75
2022/12/23 06:06:32;;;;;;;;;;;;;;;21.31;25.94;97646.59;5097319;28;904;-76
2022/12/23 06:08:58;;;;;;;;;;;;;;;21.33;26.06;97648.97;5097778;28;953;-75
2022/12/23 06:11:23;;;;;;;;;;;;;;;21.29;26.25;97651.88;5078558;28;1033;-75
2022/12/23 06:13:49;;;;;;;;;;;;;;;21.10;26.19;97655.72;5096947;28;1019;-75
2022/12/23 06:16:14;;;;;;;;;;;;;;;20.91;26.61;97656.69;5097412;28;936;-76
2022/12/23 06:18:40;;;;;;;;;;;;;;;20.64;27.03;97652.22;5097558;28;1040;-75
2022/12/23 06:21:05;;;;;;;;;;;;;;;21.07;26.57;97653.78;5096386;28;1035;-75
2022/12/23 06:23:31;;;;;;;;;;;;;;;21.16;26.58;97665.22;5097590;28;918;-75
2022/12/23 06:25:59;;;;;;;;;;;;;;;21.38;26.24;97662.56;5097405;28;1981;-75
2022/12/23 06:28:25;;;;;;;;;;;;;;;21.24;26.33;97657.31;5097048;28;996;-75
2022/12/23 06:30:51;;;;;;;;;;;;;;;21.18;26.39;97664.78;5077713;28;997;-75
2022/12/23 06:33:17;;;;;;;;;;;;;;;20.89;26.93;97659.19;5097311;28;933;-75
2022/12/23 06:35:42;;;;;;;;;;;;;;;21.24;26.21;97675.09;5097248;28;970;-74
2022/12/23 06:38:08;;;;;;;;;;;;;;;21.33;26.39;97665.97;5097051;28;1067;-75
2022/12/23 06:40:33;;;;;;;;;;;;;;;21.29;26.15;97666.03;5097048;28;894;-75
2022/12/23 06:42:58;;;;;;;;;;;;;;;20.98;26.66;97662.13;5096753;28;1021;-75
2022/12/23 06:45:24;;;;;;;;;;;;;;;20.75;26.88;97660.38;5096736;28;1984;-75
2022/12/23 06:47:49;;;;;;;;;;;;;;;20.70;27.07;97669.41;5076799;28;1123;-75
2022/12/23 06:50:15;;;;;;;;;;;;;;;21.22;26.34;97666.25;5096778;28;1037;-75
2022/12/23 06:52:40;;;;;;;;;;;;;;;21.28;26.48;97672.16;5097105;28;1113;-75
2022/12/23 06:55:06;;;;;;;;;;;;;;;21.30;26.26;97662.00;5096509;28;973;-75
2022/12/23 06:57:31;;;;;;;;;;;;;;;20.78;26.66;97648.19;5077554;28;1185;-75
2022/12/23 06:59:57;;;;;;;;;;;;;;;21.03;26.55;97672.88;5096779;28;951;-74
2022/12/23 07:02:22;;;;;;;;;;;;;;;21.18;26.57;97670.44;5096733;28;982;-75
2022/12/23 07:04:48;;;;;;;;;;;;;;;21.29;26.31;97671.69;5096371;28;1909;-75
2022/12/23 07:07:13;;;;;;;;;;;;;;;21.35;26.45;97665.50;5096162;28;902;-75
2022/12/23 07:09:38;;;;;;;;;;;;;;;21.03;26.55;97670.06;5077096;28;978;-75
2022/12/23 07:12:04;;;;;;;;;;;;;;;21.00;26.71;97670.97;5096373;28;965;-75
2022/12/23 07:14:29;;;;;;;;;;;;;;;20.90;26.95;97672.88;5077069;28;1054;-76
2022/12/23 07:16:55;;;;;;;;;;;;;;;21.11;26.81;97668.63;5095987;28;944;-76
2022/12/23 07:19:20;;;;;;;;;;;;;;;21.32;26.32;97668.00;5077045;28;984;-76
2022/12/23 07:21:46;;;;;;;;;;;;;;;21.37;26.32;97663.81;5096092;28;952;-76
2022/12/23 07:24:11;;;;;;;;;;;;;;;21.54;26.29;97664.50;5095965;28;1971;-76
2022/12/23 07:26:37;;;;;;;;;;;;;;;20.99;27.03;97675.06;5096175;28;928;-76
2022/12/23 07:29:03;;;;;;;;;;;;;;;20.96;26.92;97676.72;5095872;28;917;-75
2022/12/23 07:31:28;;;;;;;;;;;;;;;21.01;26.92;97683.88;5095762;28;1001;-76
2022/12/23 07:33:54;;;;;;;;;;;;;;;21.09;27.06;97679.59;5096005;28;916;-76
2022/12/23 07:36:19;;;;;;;;;;;;;;;21.32;26.65;97670.81;5095919;28;881;-76
2022/12/23 07:38:48;;;;;;;;;;;;;;;21.43;26.51;97675.38;5096248;28;915;-76
2022/12/23 07:41:13;;;;;;;;;;;;;;;21.09;26.63;97673.94;5102531;28;1560;-76
2022/12/23 07:43:38;;;;;;;;;;;;;;;20.91;27.06;97684.97;5087045;28;2024;-76
2022/12/23 07:46:05;;;;;;;;;;;;;;;21.02;27.05;97679.78;5092273;28;1592;-76
2022/12/23 07:48:30;;;;;;;;;;;;;;;21.22;26.82;97683.22;5091698;28;1686;-76
2022/12/23 07:50:59;;;;;;;;;;;;;;;21.27;26.68;97674.19;5089389;28;1719;-76
2022/12/23 07:53:24;;;;;;;;;;;;;;;21.33;26.41;97680.09;5071893;28;1871;-76
2022/12/23 07:55:51;;;;;;;;;;;;;;;21.31;26.74;97676.94;5088551;28;1783;-76
2022/12/23 07:58:16;;;;;;;;;;;;;;;21.18;26.76;97674.06;5091573;28;1694;-76
2022/12/23 08:00:42;;;;;;;;;;;;;;;21.24;26.58;97675.09;5075768;28;1616;-76
2022/12/23 08:03:09;;;;;;;;;;;;;;;20.95;27.08;97685.66;5092937;28;1600;-76
2022/12/23 08:05:34;;;;;;;;;;;;;;;21.27;26.69;97671.34;5075160;28;1977;-76
2022/12/23 08:08:00;;;;;;;;;;;;;;;21.40;26.32;97687.56;5092999;28;1061;-76
2022/12/23 08:10:25;;;;;;;;;;;;;;;21.38;26.69;97679.56;5092975;28;1034;-76
2022/12/23 08:12:51;;;;;;;;;;;;;;;21.11;26.66;97681.97;5092762;28;1188;-76
2022/12/23 08:15:16;;;;;;;;;;;;;;;21.06;26.89;97683.31;5094868;28;1063;-76
2022/12/23 08:17:42;;;;;;;;;;;;;;;20.86;27.48;97679.88;5095726;28;980;-76
2022/12/23 08:20:07;;;;;;;;;;;;;;;21.11;27.06;97676.31;5095073;28;1031;-76
2022/12/23 08:22:33;;;;;;;;;;;;;;;21.27;26.73;97679.84;5095602;28;981;-76
2022/12/23 08:24:58;;;;;;;;;;;;;;;21.25;26.89;97687.22;5095269;28;1902;-76
2022/12/23 08:27:24;;;;;;;;;;;;;;;21.02;27.18;97679.78;5095433;28;941;-75
2022/12/23 08:29:49;;;;;;;;;;;;;;;20.99;27.03;97669.41;5095284;28;944;-76
2022/12/23 08:32:15;;;;;;;;;;;;;;;20.84;27.45;97668.22;5095214;28;909;-75
2022/12/23 08:34:40;;;;;;;;;;;;;;;21.13;26.99;97671.78;5095499;28;912;-76
2022/12/23 08:37:06;;;;;;;;;;;;;;;21.32;26.65;97659.50;5095674;28;1144;-75
2022/12/23 08:39:31;;;;;;;;;;;;;;;21.27;26.66;97659.25;5095012;28;970;-75
2022/12/23 08:41:56;;;;;;;;;;;;;;;21.04;26.88;97655.50;5093186;28;1001;-75
2022/12/23 08:44:25;;;;;;;;;;;;;;;20.96;26.97;97658.97;5095113;28;1902;-75
2022/12/23 08:46:51;;;;;;;;;;;;;;;20.90;27.37;97655.13;5095104;28;939;-75
2022/12/23 08:49:17;;;;;;;;;;;;;;;21.03;27.10;97636.91;5095101;28;1119;-75
2022/12/23 08:51:42;;;;;;;;;;;;;;;21.31;26.70;97635.28;5094006;28;962;-75
2022/12/23 08:54:09;;;;;;;;;;;;;;;21.41;26.63;97632.59;5095117;28;925;-75
2022/12/23 08:56:35;;;;;;;;;;;;;;;20.98;26.94;97628.19;5095283;28;995;-74
2022/12/23 08:59:00;;;;;;;;;;;;;;;20.83;27.49;97639.16;5093782;28;891;-75
2022/12/23 09:01:26;;;;;;;;;;;;;;;20.91;27.55;97636.91;5083028;28;1555;-75
2022/12/23 09:03:52;;;;;;;;;;;;;;;21.07;27.11;97625.50;5083364;28;1910;-75
2022/12/23 09:06:24;;;;;;;;;;;;;;;21.33;26.85;97621.47;5084990;28;1678;-75
2022/12/23 09:08:50;;;;;;;;;;;;;;;21.31;26.96;97626.81;5085336;28;1612;-75
2022/12/23 09:11:16;;;;;;;;;;;;;;;21.09;27.15;97628.69;5084513;28;1528;-75
2022/12/23 09:13:42;;;;;;;;;;;;;;;20.98;27.33;97614.84;5091659;28;2070;-75
2022/12/23 09:16:07;;;;;;;;;;;;;;;21.09;27.46;97611.72;5098161;28;1554;-75
2022/12/23 09:18:33;;;;;;;;;;;;;;;21.16;27.23;97611.47;5083463;28;1581;-75
2022/12/23 09:21:02;;;;;;;;;;;;;;;21.37;26.92;97610.03;5087182;28;1521;-75
2022/12/23 09:23:28;;;;;;;;;;;;;;;21.38;26.67;97610.84;5087024;28;1509;-75
2022/12/23 09:25:53;;;;;;;;;;;;;;;21.22;27.03;97604.00;5089584;28;1910;-75
2022/12/23 09:28:19;;;;;;;;;;;;;;;20.99;27.04;97604.34;5082541;28;1572;-75
2022/12/23 09:30:44;;;;;;;;;;;;;;;21.45;26.95;97605.75;5081971;28;1289;-75
2022/12/23 09:33:10;;;;;;;;;;;;;;;21.49;26.79;97595.09;5087353;28;1496;-75
2022/12/23 09:35:35;;;;;;;;;;;;;;;21.37;26.91;97603.59;5083315;28;1543;-75
2022/12/23 09:38:01;;;;;;;;;;;;;;;21.03;27.42;97599.34;5098072;28;1565;-75
2022/12/23 09:40:26;;;;;;;;;;;;;;;21.14;27.13;97596.19;5097957;28;976;-75
2022/12/23 09:43:01;;;;;;;;;;;;;;;21.19;27.17;97592.78;5097156;28;948;-75
2022/12/23 09:45:26;;;;;;;;;;;;;;;21.39;26.79;97595.44;5097877;28;1985;-74
2022/12/23 09:47:52;;;;;;;;;;;;;;;21.55;26.40;97595.31;5097831;28;938;-74
2022/12/23 09:50:19;;;;;;;;;;;;;;;21.30;26.86;97594.09;5096836;28;902;-75
2022/12/23 09:52:47;;;;;;;;;;;;;;;20.97;27.21;97598.31;5095311;28;997;-75
2022/12/23 09:55:13;;;;;;;;;;;;;;;20.81;27.30;97597.16;5078599;28;974;-75
2022/12/23 09:57:41;;;;;;;;;;;;;;;20.84;27.94;97603.19;5078561;28;1027;-75
2022/12/23 10:00:09;;;;;;;;;;;;;;;21.05;27.27;97596.88;5078814;28;969;-75
2022/12/23 10:02:43;;;;;;;;;;;;;;;21.20;26.98;97592.34;5078215;28;950;-75
2022/12/23 10:05:14;;;;;;;;;;;;;;;21.33;26.66;97593.16;5095384;28;1914;-75
2022/12/23 10:07:43;;;;;;;;;;;;;;;20.97;27.25;97587.81;5094876;28;1020;-75
2022/12/23 10:10:16;;;;;;;;;;;;;;;20.78;27.71;97598.09;5078139;28;930;-74
2022/12/23 10:12:43;;;;;;;;;;;;;;;21.11;27.47;97591.44;5077573;28;1675;-75
2022/12/23 10:15:20;;;;;;;;;;;;;;;21.31;26.85;97584.34;5074523;28;964;-75
2022/12/23 10:17:46;;;;;;;;;;;;;;;21.35;26.80;97583.44;5038106;28;922;-75
2022/12/23 10:20:14;;;;;;;;;;;;;;;21.25;26.76;97588.97;5055118;28;962;-76
2022/12/23 10:22:40;;;;;;;;;;;;;;;21.22;26.90;97587.03;5038209;28;1013;-75
2022/12/23 10:25:41;;;;;;;;;;;;;;;21.15;26.81;97587.25;5055955;28;1939;-75
2022/12/23 10:28:08;;;;;;;;;;;;;;;21.36;26.84;97580.16;5024375;28;1495;-75
2022/12/23 10:30:33;;;;;;;;;;;;;;;21.45;26.63;97579.47;4989932;28;1503;-74
2022/12/23 10:33:01;;;;;;;;;;;;;;;21.49;26.62;97580.13;5007564;28;1503;-75
2022/12/23 10:35:39;;;;;;;;;;;;;;;20.98;27.48;97569.59;5021657;28;1490;-75
2022/12/23 10:38:17;;;;;;;;;;;;;;;21.18;26.96;97569.38;5023372;28;1471;-75
2022/12/23 10:40:53;;;;;;;;;;;;;;;20.98;27.42;97571.63;5006797;28;1531;-75
2022/12/23 10:43:37;;;;;;;;;;;;;;;21.43;27.09;97567.81;5017837;28;943;-75
2022/12/23 10:46:18;;;;;;;;;;;;;;;21.31;26.89;97573.03;5030437;28;1910;-75
2022/12/23 10:48:46;;;;;;;;;;;;;;;21.23;27.16;97571.63;5023382;28;1535;-75
2022/12/23 10:51:12;;;;;;;;;;;;;;;20.87;27.78;97569.13;5022336;28;1532;-75
2022/12/23 10:53:39;;;;;;;;;;;;;;;20.88;27.72;97572.75;5007316;28;1527;-75
2022/12/23 10:56:05;;;;;;;;;;;;;;;21.29;27.05;97571.84;5006979;28;1585;-75
2022/12/23 10:58:30;;;;;;;;;;;;;;;21.38;27.13;97571.22;5005860;28;1605;-74
2022/12/23 11:00:57;;;;;;;;;;;;;;;21.33;26.83;97570.53;5008064;28;1396;-75
2022/12/23 11:03:26;;;;;;;;;;;;;;;21.20;26.97;97566.91;5063824;28;1366;-74
2022/12/23 11:05:52;;;;;;;;;;;;;;;20.91;27.53;97569.03;5069745;28;1902;-75
2022/12/23 11:08:17;;;;;;;;;;;;;;;21.08;27.46;97556.34;5064248;28;1590;-75
2022/12/23 11:10:43;;;;;;;;;;;;;;;21.25;27.27;97557.84;5062908;28;1500;-75
2022/12/23 11:13:08;;;;;;;;;;;;;;;21.35;26.79;97555.13;5073610;28;1479;-75
2022/12/23 11:15:35;;;;;;;;;;;;;;;21.11;26.94;97563.94;5106899;28;1620;-75
2022/12/23 11:18:04;;;;;;;;;;;;;;;21.03;27.39;97559.75;5104858;28;1358;-74
2022/12/23 11:20:30;;;;;;;;;;;;;;;20.99;27.60;97561.91;5104174;28;1542;-75
2022/12/23 11:22:58;;;;;;;;;;;;;;;21.00;27.47;97563.50;5105712;28;1674;-76
2022/12/23 11:25:28;;;;;;;;;;;;;;;21.13;27.19;97552.97;5102581;28;1905;-75
2022/12/23 11:27:55;;;;;;;;;;;;;;;21.26;26.96;97548.09;5096123;28;955;-75
2022/12/23 11:30:21;;;;;;;;;;;;;;;21.18;27.09;97555.22;5100731;28;1313;-75
2022/12/23 11:32:46;;;;;;;;;;;;;;;21.11;27.36;97560.31;5103893;28;1466;-75
2022/12/23 11:35:24;;;;;;;;;;;;;;;20.89;27.61;97551.72;5104637;28;1463;-75
2022/12/23 11:37:50;;;;;;;;;;;;;;;21.05;27.48;97548.78;5102899;28;1445;-74
2022/12/23 11:40:25;;;;;;;;;;;;;;;21.20;27.33;97547.09;5095924;28;865;-75
2022/12/23 11:43:00;;;;;;;;;;;;;;;21.26;26.88;97550.94;5094594;28;1088;-75
2022/12/23 11:45:27;;;;;;;;;;;;;;;21.06;26.93;97539.06;5094628;28;1995;-75
2022/12/23 11:47:52;;;;;;;;;;;;;;;20.84;27.45;97549.47;5094599;28;990;-75
2022/12/23 11:50:34;;;;;;;;;;;;;;;20.84;27.31;97543.81;5094786;28;897;-75
2022/12/23 11:53:02;;;;;;;;;;;;;;;20.88;27.55;97550.94;5094553;28;920;-75
2022/12/23 11:55:31;;;;;;;;;;;;;;;21.22;26.87;97558.75;5094498;28;950;-74
2022/12/23 11:57:57;;;;;;;;;;;;;;;21.27;26.95;97549.69;5094203;28;1002;-75
2022/12/23 12:00:27;;;;;;;;;;;;;;;21.25;26.88;97557.06;5094600;28;1037;-74
2022/12/23 12:02:57;;;;;;;;;;;;;;;21.04;26.84;97561.34;5072564;28;969;-75
2022/12/23 12:05:36;;;;;;;;;;;;;;;20.76;27.52;97560.97;5032472;28;1906;-75
2022/12/23 12:08:02;;;;;;;;;;;;;;;20.65;27.52;97548.41;5016354;28;960;-75
2022/12/23 12:10:30;;;;;;;;;;;;;;;20.97;27.40;97558.72;5016169;28;1111;-75
2022/12/23 12:12:57;;;;;;;;;;;;;;;21.10;27.29;97548.22;5032414;28;1192;-75
2022/12/23 12:15:27;;;;;;;;;;;;;;;21.28;26.79;97551.25;5033043;28;973;-75
2022/12/23 12:17:53;;;;;;;;;;;;;;;21.25;26.71;97552.19;5016083;28;1086;-75
2022/12/23 12:20:33;;;;;;;;;;;;;;;21.04;26.97;97550.03;5016423;28;1013;-75
2022/12/23 12:23:00;;;;;;;;;;;;;;;20.86;27.25;97559.06;5016198;28;990;-74
2022/12/23 12:25:43;;;;;;;;;;;;;;;21.01;27.27;97553.75;5016042;28;1992;-75
2022/12/23 12:28:10;;;;;;;;;;;;;;;21.21;26.91;97556.38;5032849;28;1013;-75
2022/12/23 12:30:38;;;;;;;;;;;;;;;21.26;26.80;97553.75;5016714;28;1001;-75
2022/12/23 12:33:09;;;;;;;;;;;;;;;21.24;26.74;97550.59;5035937;28;1151;-75
2022/12/23 12:35:38;;;;;;;;;;;;;;;21.13;26.89;97560.66;5059462;28;1047;-75
2022/12/23 12:38:03;;;;;;;;;;;;;;;20.96;26.91;97557.16;5105479;28;1661;-75
2022/12/23 12:40:29;;;;;;;;;;;;;;;20.86;27.21;97570.38;5105976;28;1492;-75
2022/12/23 12:42:56;;;;;;;;;;;;;;;21.19;27.13;97576.63;5105934;28;1473;-75
2022/12/23 12:45:22;;;;;;;;;;;;;;;21.13;27.14;97567.09;5081607;28;1894;-75
2022/12/23 12:48:00;;;;;;;;;;;;;;;21.39;26.52;97567.91;5080093;28;1189;-75
2022/12/23 12:50:29;;;;;;;;;;;;;;;20.88;27.29;97572.75;5076068;28;957;-75
2022/12/23 12:52:55;;;;;;;;;;;;;;;20.72;27.64;97560.28;5076341;28;926;-74
2022/12/23 12:55:32;;;;;;;;;;;;;;;20.76;27.51;97566.63;5084927;28;1539;-75
2022/12/23 12:58:01;;;;;;;;;;;;;;;21.11;27.15;97569.59;5096816;28;1015;-75
2022/12/23 13:00:26;;;;;;;;;;;;;;;21.28;26.86;97579.56;5083085;28;1394;-75
2022/12/23 13:03:01;;;;;;;;;;;;;;;21.38;26.55;97585.38;5076181;28;918;-76
2022/12/23 13:05:41;;;;;;;;;;;;;;;21.21;26.67;97579.00;5076135;28;2221;-75
2022/12/23 13:08:41;;;;;;;;;;;;;;;20.99;27.17;97585.34;5059427;28;1051;-75
2022/12/23 13:11:21;;;;;;;;;;;;;;;20.83;27.44;97579.78;5035822;28;962;-75
2022/12/23 13:13:52;;;;;;;;;;;;;;;21.08;27.01;97590.28;5035829;28;1275;-75
2022/12/23 13:16:36;;;;;;;;;;;;;;;21.16;27.06;97586.00;5045522;28;876;-74
2022/12/23 13:19:14;;;;;;;;;;;;;;;21.30;26.92;97582.78;5055605;28;1021;-75
2022/12/23 13:21:42;;;;;;;;;;;;;;;20.96;27.20;97579.78;5035710;28;984;-75
2022/12/23 13:24:34;;;;;;;;;;;;;;;20.61;27.57;97598.59;5013467;28;1962;-74
2022/12/23 13:27:37;;;;;;;;;;;;;;;20.75;27.82;97582.00;5015664;28;1468;-75
2022/12/23 13:30:16;;;;;;;;;;;;;;;21.01;27.34;97576.38;4956499;29;1539;-75